createdAt,value
2022-11-24T00:02:22.896Z,9.1
2022-11-24T00:07:22.806Z,9.1
2022-11-24T00:17:22.727Z,9.1
2022-11-24T00:27:22.859Z,9.0
2022-11-24T00:42:22.770Z,9.0
2022-11-24T00:47:22.837Z,9.0
2022-11-24T00:52:22.756Z,9.0
2022-11-24T00:57:22.763Z,9.0
2022-11-24T01:02:36.186Z,9.0
2022-11-24T01:07:22.799Z,8.9
2022-11-24T01:12:22.744Z,8.9
2022-11-24T01:17:22.750Z,8.9
2022-11-24T01:22:22.754Z,8.9
2022-11-24T01:27:22.750Z,8.8
2022-11-24T01:32:22.754Z,8.8
2022-11-24T01:37:22.757Z,8.8
2022-11-24T01:42:22.752Z,8.8
2022-11-24T01:47:22.785Z,8.8
2022-11-24T01:52:22.759Z,8.8
2022-11-24T01:57:22.769Z,8.8
2022-11-24T02:02:22.924Z,8.9
2022-11-24T02:07:22.800Z,8.8
2022-11-24T02:12:22.767Z,8.8
2022-11-24T02:17:22.779Z,8.8
2022-11-24T02:22:22.768Z,8.8
2022-11-24T02:27:22.774Z,8.8
2022-11-24T02:32:22.778Z,8.8
2022-11-24T02:37:22.777Z,8.8
2022-11-24T02:42:22.780Z,8.8
2022-11-24T02:47:22.782Z,8.8
2022-11-24T02:52:22.787Z,8.8
2022-11-24T02:57:22.790Z,8.8
2022-11-24T03:02:22.841Z,8.8
2022-11-24T03:07:23.141Z,8.7
2022-11-24T03:12:22.791Z,8.7
2022-11-24T03:17:22.803Z,8.7
2022-11-24T03:22:22.795Z,8.7
2022-11-24T03:27:22.791Z,8.7
2022-11-24T03:32:22.793Z,8.7
2022-11-24T03:37:22.806Z,8.7
2022-11-24T03:42:22.798Z,8.8
2022-11-24T03:47:22.796Z,8.8
2022-11-24T03:57:22.798Z,8.8
2022-11-24T04:02:22.836Z,8.8
2022-11-24T04:12:22.809Z,8.9
2022-11-24T04:22:22.812Z,9.0
2022-11-24T04:27:22.809Z,9.1
2022-11-24T04:32:22.824Z,9.2
2022-11-24T04:37:22.818Z,9.2
2022-11-24T04:42:22.818Z,9.2
2022-11-24T04:47:36.175Z,9.2
2022-11-24T04:52:22.820Z,9.2
2022-11-24T04:57:22.833Z,9.3
2022-11-24T05:02:22.824Z,9.3
2022-11-24T05:07:22.847Z,9.4
2022-11-24T05:12:22.824Z,9.4
2022-11-24T05:17:22.827Z,9.4
2022-11-24T05:27:22.832Z,9.3
2022-11-24T05:32:22.842Z,9.3
2022-11-24T05:37:22.849Z,9.3
2022-11-24T05:47:22.841Z,9.4
2022-11-24T05:52:22.843Z,9.4
2022-11-24T05:57:22.851Z,9.4
2022-11-24T06:02:22.904Z,9.4
2022-11-24T06:07:22.936Z,9.4
2022-11-24T06:12:22.854Z,9.4
2022-11-24T06:17:22.850Z,9.4
2022-11-24T06:22:22.851Z,9.4
2022-11-24T06:32:22.851Z,9.4
2022-11-24T06:37:22.852Z,9.4
2022-11-24T06:42:22.853Z,9.4
2022-11-24T06:47:22.854Z,9.4
2022-11-24T06:52:22.858Z,9.4
2022-11-24T06:57:22.855Z,9.5
2022-11-24T07:02:22.867Z,9.5
2022-11-24T07:07:22.971Z,9.5
2022-11-24T07:17:22.869Z,9.5
2022-11-24T07:22:22.863Z,9.5
2022-11-24T07:27:22.870Z,9.5
2022-11-24T07:32:22.951Z,9.4
2022-11-24T07:37:25.571Z,9.4
2022-11-24T07:42:22.873Z,9.3
2022-11-24T07:47:36.236Z,9.3
2022-11-24T07:52:22.965Z,9.3
2022-11-24T07:57:22.888Z,9.3
2022-11-24T08:02:22.887Z,9.3
2022-11-24T08:07:22.939Z,9.3
2022-11-24T08:12:22.897Z,9.3
2022-11-24T08:17:22.901Z,9.3
2022-11-24T08:22:22.887Z,9.4
2022-11-24T08:27:22.946Z,9.5
2022-11-24T08:32:22.918Z,9.5
2022-11-24T08:37:22.898Z,9.5
2022-11-24T08:47:22.897Z,9.6
2022-11-24T08:52:22.903Z,9.7
2022-11-24T08:57:22.902Z,9.8
2022-11-24T09:02:22.913Z,9.9
2022-11-24T09:07:22.998Z,9.8
2022-11-24T09:12:22.907Z,9.8
2022-11-24T09:17:22.923Z,9.8
2022-11-24T09:22:22.915Z,9.9
2022-11-24T09:27:22.914Z,9.9
2022-11-24T09:32:22.913Z,9.9
2022-11-24T09:37:25.897Z,10.0
2022-11-24T09:42:22.925Z,10.0
2022-11-24T09:47:22.928Z,10.1
2022-11-24T09:52:22.926Z,10.1
2022-11-24T09:57:22.930Z,10.2
2022-11-24T10:02:22.948Z,10.3
2022-11-24T10:07:22.978Z,10.4
2022-11-24T10:12:22.932Z,10.5
2022-11-24T10:17:22.942Z,10.6
2022-11-24T10:22:22.937Z,10.7
2022-11-24T10:27:22.945Z,10.8
2022-11-24T10:32:22.936Z,10.9
2022-11-24T10:37:22.948Z,11.0
2022-11-24T10:42:22.945Z,11.1
2022-11-24T10:47:23.063Z,11.1
2022-11-24T10:52:22.844Z,11.3
2022-11-24T10:57:22.847Z,11.3
2022-11-24T11:02:22.922Z,11.4
2022-11-24T11:07:22.873Z,11.4
2022-11-24T11:17:22.883Z,11.6
2022-11-24T11:22:22.856Z,11.7
2022-11-24T11:27:22.859Z,11.8
2022-11-24T11:37:22.861Z,12.0
2022-11-24T11:43:00.759Z,12.1
2022-11-24T11:47:22.867Z,12.2
2022-11-24T11:57:22.878Z,12.4
2022-11-24T12:02:23.038Z,12.4
2022-11-24T12:07:22.922Z,12.5
2022-11-24T12:12:22.888Z,12.6
2022-11-24T12:17:22.946Z,12.8
2022-11-24T12:22:22.885Z,12.8
2022-11-24T12:27:23.450Z,12.9
2022-11-24T12:37:22.895Z,13.1
2022-11-24T12:42:22.891Z,13.1
2022-11-24T12:47:22.897Z,13.1
2022-11-24T12:52:22.908Z,13.1
2022-11-24T12:57:22.897Z,13.2
2022-11-24T13:02:23.073Z,13.2
2022-11-24T13:07:23.025Z,13.2
2022-11-24T13:12:22.905Z,13.2
2022-11-24T13:17:36.374Z,13.3
2022-11-24T13:22:22.912Z,13.3
2022-11-24T13:27:22.912Z,13.3
2022-11-24T13:32:22.910Z,13.2
2022-11-24T13:37:31.221Z,13.2
2022-11-24T13:42:43.799Z,13.3
2022-11-24T13:47:22.915Z,13.2
2022-11-24T13:52:22.927Z,13.2
2022-11-24T13:57:22.917Z,13.2
2022-11-24T14:02:23.049Z,13.2
2022-11-24T14:07:23.049Z,13.2
2022-11-24T14:12:22.923Z,13.1
2022-11-24T14:17:23.165Z,13.0
2022-11-24T14:22:22.929Z,12.9
2022-11-24T14:27:22.927Z,12.8
2022-11-24T14:32:22.950Z,12.7
2022-11-24T14:37:22.945Z,12.7
2022-11-24T14:42:22.933Z,12.6
2022-11-24T14:47:28.781Z,12.4
2022-11-24T14:52:22.934Z,12.3
2022-11-24T14:57:22.933Z,12.1
2022-11-24T15:02:23.001Z,12.0
2022-11-24T15:07:22.977Z,11.9
2022-11-24T15:12:22.944Z,11.7
2022-11-24T15:17:22.967Z,11.6
2022-11-24T15:22:22.943Z,11.5
2022-11-24T15:27:22.942Z,11.4
2022-11-24T15:32:22.954Z,11.2
2022-11-24T15:37:22.947Z,11.1
2022-11-24T15:42:22.943Z,11.0
2022-11-24T15:47:22.949Z,10.9
2022-11-24T15:52:22.953Z,10.8
2022-11-24T15:57:22.947Z,10.6
2022-11-24T16:02:23.134Z,10.5
2022-11-24T16:07:23.123Z,10.5
2022-11-24T16:12:23.079Z,10.4
2022-11-24T16:17:23.057Z,10.3
2022-11-24T16:22:23.062Z,10.2
2022-11-24T16:27:22.959Z,10.1
2022-11-24T16:32:23.063Z,10.0
2022-11-24T16:37:23.061Z,9.9
2022-11-24T16:42:23.062Z,9.8
2022-11-24T16:47:23.062Z,9.8
2022-11-24T16:52:23.072Z,9.7
2022-11-24T16:57:23.080Z,9.7
2022-11-24T17:02:23.155Z,9.6
2022-11-24T17:07:23.214Z,9.6
2022-11-24T17:12:23.075Z,9.5
2022-11-24T17:17:23.078Z,9.5
2022-11-24T17:22:23.080Z,9.5
2022-11-24T17:27:23.082Z,9.5
2022-11-24T17:32:23.093Z,9.5
2022-11-24T17:37:23.094Z,9.4
2022-11-24T17:42:23.083Z,9.4
2022-11-24T17:47:23.083Z,9.4
2022-11-24T17:52:23.083Z,9.5
2022-11-24T17:57:23.082Z,9.5
2022-11-24T18:02:23.157Z,9.5
2022-11-24T18:07:23.157Z,9.6
2022-11-24T18:12:23.089Z,9.6
2022-11-24T18:17:23.112Z,9.6
2022-11-24T18:22:42.824Z,9.6
2022-11-24T18:27:23.098Z,9.6
2022-11-24T18:32:23.097Z,9.7
2022-11-24T18:37:23.099Z,9.7
2022-11-24T18:42:23.107Z,9.6
2022-11-24T18:47:23.104Z,9.6
2022-11-24T18:52:23.109Z,9.6
2022-11-24T18:57:23.288Z,9.5
2022-11-24T19:02:23.311Z,9.4
2022-11-24T19:07:23.168Z,9.3
2022-11-24T19:12:23.112Z,9.2
2022-11-24T19:17:23.115Z,9.2
2022-11-24T19:22:23.112Z,9.1
2022-11-24T19:27:23.115Z,9.0
2022-11-24T19:32:23.116Z,9.0
2022-11-24T19:37:23.126Z,8.9
2022-11-24T19:42:23.115Z,8.8
2022-11-24T19:47:23.120Z,8.8
2022-11-24T19:52:23.118Z,8.8
2022-11-24T19:57:23.126Z,8.8
2022-11-24T20:02:23.204Z,8.8
2022-11-24T20:07:23.217Z,8.7
2022-11-24T20:12:23.125Z,8.7
2022-11-24T20:17:23.127Z,8.7
2022-11-24T20:22:23.127Z,8.7
2022-11-24T20:27:23.127Z,8.7
2022-11-24T20:32:23.130Z,8.6
2022-11-24T20:37:23.134Z,8.6
2022-11-24T20:42:23.134Z,8.6
2022-11-24T20:47:23.136Z,8.5
2022-11-24T20:52:23.141Z,8.6
2022-11-24T20:57:23.133Z,8.6
2022-11-24T21:02:23.358Z,8.7
2022-11-24T21:07:23.200Z,8.7
2022-11-24T21:12:23.145Z,8.8
2022-11-24T21:17:23.148Z,8.9
2022-11-24T21:22:23.145Z,8.9
2022-11-24T21:27:23.144Z,8.9
2022-11-24T21:32:23.148Z,9.0
2022-11-24T21:37:23.151Z,9.0
2022-11-24T21:42:23.164Z,9.0
2022-11-24T21:47:23.163Z,9.1
2022-11-24T21:52:23.157Z,9.1
2022-11-24T21:57:23.175Z,9.1
2022-11-24T22:02:23.207Z,9.1
2022-11-24T22:07:23.263Z,9.1
2022-11-24T22:12:23.167Z,9.1
2022-11-24T22:17:23.163Z,9.1
2022-11-24T22:22:23.170Z,9.1
2022-11-24T22:27:23.168Z,9.1
2022-11-24T22:32:23.176Z,9.1
2022-11-24T22:37:23.171Z,9.1
2022-11-24T22:42:23.176Z,9.1
2022-11-24T22:47:23.175Z,9.1
2022-11-24T22:52:23.176Z,9.1
2022-11-24T22:57:23.178Z,9.1
2022-11-24T23:02:23.187Z,9.2
2022-11-24T23:07:23.288Z,9.2
2022-11-24T23:12:23.188Z,9.3
2022-11-24T23:17:23.185Z,9.3
2022-11-24T23:22:23.187Z,9.3
2022-11-24T23:27:23.192Z,9.4
2022-11-24T23:32:23.211Z,9.4
2022-11-24T23:37:34.387Z,9.4
2022-11-24T23:42:23.195Z,9.5
2022-11-24T23:47:23.194Z,9.5
2022-11-24T23:52:23.207Z,9.5
2022-11-24T23:57:23.198Z,9.5
